createdAt,value
2023-03-30T00:01:12.085Z,21.20
2023-03-30T00:03:39.400Z,21.10
2023-03-30T00:06:07.414Z,21.20
2023-03-30T00:08:34.358Z,21.30
2023-03-30T00:11:11.874Z,21.30
2023-03-30T00:13:39.373Z,21.30
2023-03-30T00:16:09.206Z,21.20
2023-03-30T00:18:37.247Z,21.30
2023-03-30T00:21:05.374Z,21.20
2023-03-30T00:23:32.578Z,21.10
2023-03-30T00:25:59.811Z,21.20
2023-03-30T00:28:27.252Z,21.20
2023-03-30T00:30:54.099Z,21.20
2023-03-30T00:33:30.335Z,21.10
2023-03-30T00:36:04.660Z,21.10
2023-03-30T00:38:31.526Z,21.10
2023-03-30T00:41:02.004Z,21.10
2023-03-30T00:43:29.792Z,21.10
2023-03-30T00:45:57.756Z,21.00
2023-03-30T00:48:34.414Z,21.00
2023-03-30T00:51:10.483Z,21.00
2023-03-30T00:53:50.325Z,21.00
2023-03-30T00:56:23.081Z,21.00
2023-03-30T00:58:50.851Z,20.90
2023-03-30T01:01:25.742Z,20.90
2023-03-30T01:03:53.900Z,20.80
2023-03-30T01:06:24.515Z,20.90
2023-03-30T01:08:53.165Z,20.80
2023-03-30T01:11:21.237Z,20.90
2023-03-30T01:13:52.776Z,20.90
2023-03-30T01:16:33.578Z,20.90
2023-03-30T01:19:26.244Z,20.80
2023-03-30T01:22:08.072Z,20.90
2023-03-30T01:24:49.017Z,20.80
2023-03-30T01:27:46.303Z,20.80
2023-03-30T01:30:34.942Z,20.90
2023-03-30T01:33:20.675Z,20.80
2023-03-30T01:35:50.961Z,20.80
2023-03-30T01:38:23.751Z,20.80
2023-03-30T01:41:15.190Z,20.90
2023-03-30T01:44:08.078Z,20.80
2023-03-30T01:46:41.953Z,20.80
2023-03-30T01:49:21.236Z,20.80
2023-03-30T01:52:12.413Z,20.80
2023-03-30T01:54:50.212Z,20.80
2023-03-30T01:57:23.504Z,20.80
2023-03-30T01:59:58.700Z,20.80
2023-03-30T02:02:30.519Z,20.80
2023-03-30T02:05:00.829Z,20.80
2023-03-30T02:07:32.184Z,20.90
2023-03-30T02:10:03.180Z,20.90
2023-03-30T02:12:30.998Z,21.00
2023-03-30T02:15:02.037Z,20.90
2023-03-30T02:17:30.752Z,20.90
2023-03-30T02:19:59.222Z,20.80
2023-03-30T02:22:27.687Z,20.90
2023-03-30T02:24:56.519Z,20.90
2023-03-30T02:27:25.163Z,20.90
2023-03-30T02:29:52.686Z,20.90
2023-03-30T02:32:23.487Z,20.90
2023-03-30T02:35:09.931Z,20.90
2023-03-30T02:37:50.674Z,20.90
2023-03-30T02:40:56.216Z,20.90
2023-03-30T02:43:49.932Z,20.80
2023-03-30T02:46:41.958Z,20.80
2023-03-30T02:49:24.407Z,20.80
2023-03-30T02:52:01.954Z,20.80
2023-03-30T02:54:59.495Z,20.80
2023-03-30T02:57:41.162Z,20.60
2023-03-30T03:00:46.674Z,20.80
2023-03-30T03:03:24.062Z,20.70
2023-03-30T03:05:54.892Z,20.70
2023-03-30T03:08:24.573Z,20.70
2023-03-30T03:10:51.850Z,20.80
2023-03-30T03:13:20.810Z,20.70
2023-03-30T03:15:49.566Z,20.80
2023-03-30T03:18:16.799Z,20.80
2023-03-30T03:20:43.695Z,20.70
2023-03-30T03:23:10.827Z,20.70
2023-03-30T03:25:37.769Z,20.50
2023-03-30T03:28:04.811Z,20.50
2023-03-30T03:30:31.709Z,20.40
2023-03-30T03:32:58.646Z,20.50
2023-03-30T03:35:25.649Z,20.50
2023-03-30T03:37:52.562Z,20.50
2023-03-30T03:40:19.398Z,20.50
2023-03-30T03:42:46.345Z,20.50
2023-03-30T03:45:13.290Z,20.50
2023-03-30T03:47:40.326Z,20.40
2023-03-30T03:50:09.964Z,20.40
2023-03-30T03:52:37.218Z,20.30
2023-03-30T03:55:05.282Z,20.30
2023-03-30T03:57:32.190Z,20.30
2023-03-30T03:59:59.925Z,20.40
2023-03-30T04:02:27.896Z,20.40
2023-03-30T04:04:55.003Z,20.50
2023-03-30T04:07:21.976Z,20.50
2023-03-30T04:09:48.858Z,20.60
2023-03-30T04:12:15.804Z,20.60
2023-03-30T04:14:42.612Z,20.60
2023-03-30T04:17:09.517Z,20.50
2023-03-30T04:19:36.360Z,20.50
2023-03-30T04:22:06.046Z,20.50
2023-03-30T04:24:35.650Z,20.60
2023-03-30T04:27:03.009Z,20.50
2023-03-30T04:29:30.850Z,20.50
2023-03-30T04:32:02.745Z,20.50
2023-03-30T04:34:31.051Z,20.50
2023-03-30T04:36:58.215Z,20.50
2023-03-30T04:39:30.428Z,20.50
2023-03-30T04:41:57.483Z,20.50
2023-03-30T04:44:24.431Z,20.40
2023-03-30T04:46:51.331Z,20.40
2023-03-30T04:49:18.193Z,20.50
2023-03-30T04:51:45.081Z,20.40
2023-03-30T04:54:11.895Z,20.40
2023-03-30T04:56:38.830Z,20.40
2023-03-30T04:59:05.764Z,20.40
2023-03-30T05:01:32.790Z,20.30
2023-03-30T05:03:59.665Z,20.20
2023-03-30T05:06:27.420Z,20.10
2023-03-30T05:08:54.433Z,20.10
2023-03-30T05:11:21.266Z,20.10
2023-03-30T05:13:50.775Z,20.10
2023-03-30T05:16:17.623Z,20.00
2023-03-30T05:18:44.740Z,20.10
2023-03-30T05:21:11.678Z,20.10
2023-03-30T05:23:39.781Z,20.00
2023-03-30T05:26:07.382Z,20.00
2023-03-30T05:28:34.489Z,20.00
2023-03-30T05:31:01.446Z,20.00
2023-03-30T05:33:28.377Z,20.00
2023-03-30T05:35:55.688Z,19.90
2023-03-30T05:38:22.728Z,19.90
2023-03-30T05:40:53.806Z,19.90
2023-03-30T05:43:21.418Z,19.70
2023-03-30T05:45:48.451Z,19.80
2023-03-30T05:48:15.542Z,19.70
2023-03-30T05:50:42.931Z,19.60
2023-03-30T05:53:09.935Z,19.70
2023-03-30T05:55:36.868Z,19.70
2023-03-30T05:58:04.069Z,19.40
2023-03-30T06:00:33.395Z,19.40
2023-03-30T06:03:00.638Z,19.40
2023-03-30T06:05:27.625Z,19.30
2023-03-30T06:07:54.544Z,19.30
2023-03-30T06:10:22.196Z,19.40
2023-03-30T06:12:49.008Z,19.50
2023-03-30T06:15:15.861Z,19.50
2023-03-30T06:17:42.780Z,19.50
2023-03-30T06:20:12.617Z,19.50
2023-03-30T06:22:43.898Z,19.50
2023-03-30T06:25:10.953Z,19.50
2023-03-30T06:27:37.924Z,19.50
2023-03-30T06:30:06.161Z,19.50
2023-03-30T06:32:33.067Z,19.50
2023-03-30T06:34:59.887Z,19.60
2023-03-30T06:37:26.838Z,19.60
2023-03-30T06:39:53.689Z,19.60
2023-03-30T06:42:20.790Z,19.60
2023-03-30T06:44:49.795Z,19.60
2023-03-30T06:47:16.944Z,19.60
2023-03-30T06:49:43.962Z,19.70
2023-03-30T06:52:13.017Z,19.70
2023-03-30T06:54:39.870Z,19.70
2023-03-30T06:57:07.918Z,19.70
2023-03-30T06:59:35.262Z,19.70
2023-03-30T07:02:03.616Z,19.70
2023-03-30T07:04:30.888Z,19.70
2023-03-30T07:06:59.719Z,19.50
2023-03-30T07:09:26.670Z,19.50
2023-03-30T07:11:55.859Z,19.50
2023-03-30T07:14:23.581Z,19.60
2023-03-30T07:16:51.305Z,19.60
2023-03-30T07:19:18.317Z,19.70
2023-03-30T07:21:45.181Z,19.70
2023-03-30T07:24:12.124Z,19.70
2023-03-30T07:26:38.996Z,19.60
2023-03-30T07:29:06.801Z,19.50
2023-03-30T07:31:34.120Z,19.60
2023-03-30T07:34:03.103Z,19.70
2023-03-30T07:36:29.998Z,19.70
2023-03-30T07:38:58.558Z,19.80
2023-03-30T07:45:17.331Z,19.90
2023-03-30T07:47:44.375Z,19.70
2023-03-30T07:50:11.507Z,19.70
2023-03-30T07:52:38.498Z,19.70
2023-03-30T07:55:05.570Z,19.70
2023-03-30T07:57:32.579Z,19.80
2023-03-30T07:59:59.464Z,19.90
2023-03-30T08:02:27.209Z,19.90
2023-03-30T08:04:54.742Z,19.80
2023-03-30T08:07:21.713Z,19.80
2023-03-30T08:09:48.781Z,19.70
2023-03-30T08:12:15.991Z,19.70
2023-03-30T08:14:42.923Z,19.70
2023-03-30T08:17:09.810Z,19.70
2023-03-30T08:19:36.686Z,19.70
2023-03-30T08:22:03.617Z,19.80
2023-03-30T08:24:32.010Z,19.70
2023-03-30T08:26:58.977Z,19.70
2023-03-30T08:29:25.906Z,19.70
2023-03-30T08:31:52.830Z,19.60
2023-03-30T08:34:20.092Z,19.50
2023-03-30T08:36:47.266Z,19.40
2023-03-30T08:39:14.156Z,19.50
2023-03-30T08:41:46.875Z,19.40
2023-03-30T08:44:34.191Z,19.40
2023-03-30T08:47:07.229Z,19.40
2023-03-30T08:49:41.557Z,19.40
2023-03-30T08:52:20.035Z,19.40
2023-03-30T08:54:48.707Z,19.40
2023-03-30T08:57:46.930Z,19.50
2023-03-30T09:00:35.371Z,19.60
2023-03-30T09:03:23.992Z,19.40
2023-03-30T09:06:06.927Z,19.40
2023-03-30T09:08:34.536Z,19.40
2023-03-30T09:11:04.597Z,19.30
2023-03-30T09:13:35.032Z,19.20
2023-03-30T09:16:19.246Z,19.30
2023-03-30T09:18:52.252Z,19.40
2023-03-30T09:21:22.897Z,19.50
2023-03-30T09:23:58.076Z,19.70
2023-03-30T09:26:31.655Z,19.80
2023-03-30T09:29:20.828Z,20.00
2023-03-30T09:32:16.863Z,20.00
2023-03-30T09:34:54.724Z,19.90
2023-03-30T09:37:23.219Z,20.00
2023-03-30T09:39:50.936Z,20.10
2023-03-30T09:42:39.520Z,20.10
2023-03-30T09:45:19.613Z,20.10
2023-03-30T09:47:46.745Z,20.10
2023-03-30T09:50:22.918Z,20.20
2023-03-30T09:53:26.608Z,20.00
2023-03-30T09:56:02.523Z,19.80
2023-03-30T09:58:33.091Z,19.80
2023-03-30T10:01:02.776Z,19.70
2023-03-30T10:03:30.504Z,19.80
2023-03-30T10:06:03.452Z,19.80
2023-03-30T10:08:30.834Z,19.90
2023-03-30T10:10:59.651Z,19.90
2023-03-30T10:13:38.802Z,19.90
2023-03-30T10:16:41.323Z,19.90
2023-03-30T10:19:17.886Z,19.70
2023-03-30T10:21:46.922Z,19.80
2023-03-30T10:24:29.482Z,19.70
2023-03-30T10:26:59.874Z,19.70
2023-03-30T10:29:29.569Z,19.70
2023-03-30T10:32:14.519Z,19.70
2023-03-30T10:34:50.852Z,19.60
2023-03-30T10:37:27.263Z,19.50
2023-03-30T10:39:56.093Z,19.40
2023-03-30T10:42:26.327Z,19.10
2023-03-30T10:45:07.553Z,19.30
2023-03-30T10:47:53.017Z,19.40
2023-03-30T10:50:48.256Z,19.20
2023-03-30T10:53:21.090Z,19.20
2023-03-30T10:55:56.806Z,19.20
2023-03-30T10:58:38.158Z,19.30
2023-03-30T11:01:33.963Z,19.50
2023-03-30T11:04:20.554Z,19.60
2023-03-30T11:06:53.632Z,19.60
2023-03-30T11:09:27.852Z,19.70
2023-03-30T11:12:01.240Z,19.80
2023-03-30T11:14:51.417Z,19.90
2023-03-30T11:17:40.637Z,19.80
2023-03-30T11:20:23.707Z,19.70
2023-03-30T11:22:58.388Z,19.70
2023-03-30T11:25:29.797Z,19.80
2023-03-30T11:28:09.506Z,19.90
2023-03-30T11:30:39.055Z,19.90
2023-03-30T11:33:24.401Z,19.90
2023-03-30T11:36:00.496Z,20.10
2023-03-30T11:38:59.693Z,20.10
2023-03-30T11:41:57.474Z,20.10
2023-03-30T11:44:24.375Z,20.30
2023-03-30T11:46:57.393Z,20.30
2023-03-30T11:49:48.251Z,20.50
2023-03-30T11:52:42.495Z,20.40
2023-03-30T11:55:27.539Z,20.40
2023-03-30T11:58:04.935Z,20.60
2023-03-30T12:00:54.722Z,20.60
2023-03-30T12:03:44.705Z,20.70
2023-03-30T12:06:28.247Z,20.90
2023-03-30T12:09:10.790Z,21.10
2023-03-30T12:15:46.959Z,21.30
2023-03-30T12:18:38.314Z,21.20
2023-03-30T12:21:14.192Z,21.30
2023-03-30T12:23:55.947Z,21.20
2023-03-30T12:26:31.637Z,21.00
2023-03-30T12:31:55.981Z,21.30
2023-03-30T12:34:26.473Z,21.50
2023-03-30T12:37:26.582Z,21.60
2023-03-30T12:40:10.536Z,21.90
2023-03-30T12:42:54.381Z,22.00
2023-03-30T12:45:26.721Z,22.00
2023-03-30T12:48:19.232Z,22.00
2023-03-30T12:51:27.770Z,21.70
2023-03-30T12:54:51.464Z,21.80
2023-03-30T12:57:36.738Z,22.00
2023-03-30T13:00:24.828Z,22.10
2023-03-30T13:03:05.553Z,22.10
2023-03-30T13:05:36.993Z,22.20
2023-03-30T13:08:15.899Z,22.20
2023-03-30T13:10:43.376Z,22.10
2023-03-30T13:13:44.576Z,22.10
2023-03-30T13:16:14.012Z,22.10
2023-03-30T13:18:53.901Z,22.10
2023-03-30T13:21:23.920Z,22.10
2023-03-30T13:24:21.103Z,22.20
2023-03-30T13:26:47.948Z,22.20
2023-03-30T13:29:17.198Z,22.00
2023-03-30T13:32:04.887Z,22.10
2023-03-30T13:34:37.820Z,22.10
2023-03-30T13:37:28.851Z,22.10
2023-03-30T13:40:41.647Z,22.00
2023-03-30T13:43:28.352Z,22.00
2023-03-30T13:46:16.316Z,21.80
2023-03-30T13:49:02.790Z,21.90
2023-03-30T13:51:31.598Z,21.90
2023-03-30T13:54:20.250Z,21.90
2023-03-30T13:56:55.709Z,21.90
2023-03-30T13:59:29.287Z,21.60
2023-03-30T14:02:00.880Z,21.60
2023-03-30T14:04:33.448Z,21.60
2023-03-30T14:07:14.001Z,21.50
2023-03-30T14:09:41.134Z,21.20
2023-03-30T14:12:08.679Z,21.20
2023-03-30T14:14:47.013Z,21.20
2023-03-30T14:17:22.016Z,21.20
2023-03-30T14:20:16.060Z,21.30
2023-03-30T14:22:46.110Z,21.40
2023-03-30T14:25:42.372Z,21.50
2023-03-30T14:28:15.967Z,21.50
2023-03-30T14:30:52.161Z,21.80
2023-03-30T14:33:20.551Z,21.80
2023-03-30T14:35:51.190Z,21.90
2023-03-30T14:38:26.732Z,21.90
2023-03-30T14:40:54.750Z,22.00
2023-03-30T14:43:24.724Z,21.90
2023-03-30T14:45:56.809Z,21.40
2023-03-30T14:48:32.207Z,21.30
2023-03-30T14:51:01.719Z,21.20
2023-03-30T14:53:29.937Z,21.20
2023-03-30T14:56:00.688Z,21.20
2023-03-30T14:58:31.324Z,21.20
2023-03-30T15:01:01.283Z,21.00
2023-03-30T15:03:34.432Z,21.00
2023-03-30T15:06:07.078Z,20.80
2023-03-30T15:08:39.371Z,20.90
2023-03-30T15:11:22.188Z,20.90
2023-03-30T15:13:57.908Z,21.00
2023-03-30T15:16:31.915Z,21.10
2023-03-30T15:19:11.661Z,21.10
2023-03-30T15:21:39.154Z,21.30
2023-03-30T15:24:25.801Z,21.30
2023-03-30T15:26:56.068Z,21.30
2023-03-30T15:29:24.121Z,21.30
2023-03-30T15:32:14.311Z,21.20
2023-03-30T15:35:04.555Z,21.30
2023-03-30T15:37:33.882Z,21.30
2023-03-30T15:40:01.145Z,21.20
2023-03-30T15:42:33.290Z,21.20
2023-03-30T15:45:13.367Z,21.20
2023-03-30T15:47:41.604Z,21.30
2023-03-30T15:50:14.673Z,21.30
2023-03-30T15:52:45.053Z,21.40
2023-03-30T15:55:21.728Z,21.40
2023-03-30T15:57:51.598Z,21.60
2023-03-30T16:00:38.287Z,21.70
2023-03-30T16:03:05.567Z,21.80
2023-03-30T16:05:34.427Z,21.90
2023-03-30T16:08:01.618Z,21.90
2023-03-30T16:10:31.368Z,21.90
2023-03-30T16:13:00.202Z,21.80
2023-03-30T16:15:30.614Z,21.80
2023-03-30T16:17:58.246Z,21.80
2023-03-30T16:20:28.835Z,21.80
2023-03-30T16:22:56.110Z,21.90
2023-03-30T16:25:34.132Z,21.90
2023-03-30T16:28:16.280Z,22.00
2023-03-30T16:30:48.900Z,21.90
2023-03-30T16:33:15.774Z,21.80
2023-03-30T16:35:43.269Z,21.70
2023-03-30T16:38:20.462Z,21.60
2023-03-30T16:40:53.595Z,21.60
2023-03-30T16:43:20.557Z,21.50
2023-03-30T16:45:47.430Z,21.40
2023-03-30T16:48:17.726Z,21.30
2023-03-30T16:50:49.117Z,21.20
2023-03-30T16:53:16.322Z,21.30
2023-03-30T16:55:43.138Z,21.20
2023-03-30T16:58:16.333Z,21.30
2023-03-30T17:00:49.667Z,21.30
2023-03-30T17:03:18.148Z,21.30
2023-03-30T17:05:48.368Z,21.20
2023-03-30T17:08:21.875Z,21.20
2023-03-30T17:10:49.301Z,21.20
2023-03-30T17:13:16.530Z,21.20
2023-03-30T17:15:43.753Z,21.20
2023-03-30T17:18:18.535Z,21.20
2023-03-30T17:21:09.214Z,21.20
2023-03-30T17:23:36.197Z,21.20
2023-03-30T17:26:03.489Z,21.20
2023-03-30T17:28:36.518Z,21.10
2023-03-30T17:31:06.246Z,21.10
2023-03-30T17:33:35.508Z,21.10
2023-03-30T17:36:10.345Z,21.10
2023-03-30T17:38:37.899Z,21.00
2023-03-30T17:41:05.000Z,21.00
2023-03-30T17:43:32.035Z,21.10
2023-03-30T17:45:59.202Z,21.00
2023-03-30T17:48:26.338Z,21.00
2023-03-30T17:50:53.247Z,21.00
2023-03-30T17:53:21.258Z,20.90
2023-03-30T17:55:51.871Z,20.90
2023-03-30T17:58:26.243Z,20.80
2023-03-30T18:00:53.949Z,20.80
2023-03-30T18:03:22.982Z,20.80
2023-03-30T18:05:51.215Z,20.70
2023-03-30T18:08:21.563Z,20.60
2023-03-30T18:10:53.934Z,20.60
2023-03-30T18:13:22.095Z,20.60
2023-03-30T18:15:55.060Z,20.40
2023-03-30T18:18:25.110Z,20.30
2023-03-30T18:20:56.271Z,20.30
2023-03-30T18:23:23.907Z,20.40
2023-03-30T18:25:51.425Z,20.30
2023-03-30T18:28:28.245Z,20.30
2023-03-30T18:30:57.590Z,20.20
2023-03-30T18:33:25.381Z,20.10
2023-03-30T18:35:53.565Z,20.20
2023-03-30T18:38:22.192Z,20.10
2023-03-30T18:40:53.435Z,20.20
2023-03-30T18:43:20.394Z,20.20
2023-03-30T18:45:49.507Z,20.00
2023-03-30T18:48:21.154Z,20.00
2023-03-30T18:50:50.387Z,20.00
2023-03-30T18:53:19.625Z,20.00
2023-03-30T18:55:49.522Z,20.00
2023-03-30T18:58:18.508Z,19.80
2023-03-30T19:00:45.704Z,19.70
2023-03-30T19:03:15.969Z,19.70
2023-03-30T19:05:43.364Z,19.70
2023-03-30T19:08:15.736Z,19.70
2023-03-30T19:10:44.297Z,19.70
2023-03-30T19:13:16.087Z,19.50
2023-03-30T19:15:43.847Z,19.60
2023-03-30T19:18:10.851Z,19.60
2023-03-30T19:20:39.842Z,19.70
2023-03-30T19:23:07.849Z,19.70
2023-03-30T19:25:35.500Z,19.70
2023-03-30T19:28:04.561Z,19.80
2023-03-30T19:30:34.366Z,19.80
2023-03-30T19:33:05.899Z,19.70
2023-03-30T19:35:33.709Z,19.80
2023-03-30T19:38:00.649Z,19.80
2023-03-30T19:40:27.560Z,19.70
2023-03-30T19:42:54.434Z,19.80
2023-03-30T19:45:23.594Z,19.80
2023-03-30T19:47:50.906Z,19.70
2023-03-30T19:50:19.962Z,19.70
2023-03-30T19:52:50.016Z,19.70
2023-03-30T19:55:18.921Z,19.70
2023-03-30T19:57:46.324Z,19.70
2023-03-30T20:00:17.115Z,19.70
2023-03-30T20:02:49.023Z,19.60
2023-03-30T20:05:16.871Z,19.60
2023-03-30T20:07:45.553Z,19.50
2023-03-30T20:10:15.647Z,19.50
2023-03-30T20:12:42.760Z,19.50
2023-03-30T20:15:11.278Z,19.50
2023-03-30T20:17:39.130Z,19.50
2023-03-30T20:20:09.269Z,19.50
2023-03-30T20:22:38.349Z,19.40
2023-03-30T20:25:07.585Z,19.40
2023-03-30T20:27:35.567Z,19.30
2023-03-30T20:30:04.102Z,19.40
2023-03-30T20:32:31.933Z,19.30
2023-03-30T20:34:58.869Z,19.40
2023-03-30T20:37:25.836Z,19.40
2023-03-30T20:39:52.746Z,19.40
2023-03-30T20:42:26.397Z,19.50
2023-03-30T20:44:53.917Z,19.50
2023-03-30T20:47:26.319Z,19.50
2023-03-30T20:49:56.385Z,19.50
2023-03-30T20:52:23.938Z,19.50
2023-03-30T20:54:52.498Z,19.50
2023-03-30T20:57:20.508Z,19.40
2023-03-30T20:59:48.150Z,19.40
2023-03-30T21:02:16.026Z,19.30
2023-03-30T21:04:43.551Z,19.30
2023-03-30T21:07:11.496Z,19.30
2023-03-30T21:09:38.595Z,19.30
2023-03-30T21:12:05.964Z,19.30
2023-03-30T21:14:32.761Z,19.30
2023-03-30T21:16:59.725Z,19.30
2023-03-30T21:19:26.585Z,19.30
2023-03-30T21:21:53.479Z,19.30
2023-03-30T21:24:20.737Z,19.30
2023-03-30T21:26:47.883Z,19.40
2023-03-30T21:29:14.824Z,19.40
2023-03-30T21:31:41.915Z,19.40
2023-03-30T21:34:10.866Z,19.40
2023-03-30T21:36:38.076Z,19.40
2023-03-30T21:39:05.244Z,19.40
2023-03-30T21:41:32.083Z,19.40
2023-03-30T21:43:59.050Z,19.40
2023-03-30T21:46:26.913Z,19.40
2023-03-30T21:48:54.644Z,19.40
2023-03-30T21:51:30.108Z,19.30
2023-03-30T21:53:58.019Z,19.30
2023-03-30T21:56:28.996Z,19.30
2023-03-30T21:58:57.110Z,19.20
2023-03-30T22:01:24.380Z,19.10
2023-03-30T22:03:52.642Z,19.00
2023-03-30T22:06:20.537Z,18.90
2023-03-30T22:08:47.917Z,18.90
2023-03-30T22:11:20.720Z,18.70
2023-03-30T22:13:48.687Z,18.80
2023-03-30T22:16:42.736Z,18.70
2023-03-30T22:19:09.852Z,18.70
2023-03-30T22:21:37.270Z,18.80
2023-03-30T22:24:07.130Z,18.80
2023-03-30T22:26:35.603Z,18.80
2023-03-30T22:29:02.565Z,18.80
2023-03-30T22:31:29.567Z,18.90
2023-03-30T22:33:56.862Z,18.90
2023-03-30T22:36:26.798Z,19.00
2023-03-30T22:38:55.961Z,19.10
2023-03-30T22:41:26.592Z,19.10
2023-03-30T22:43:55.396Z,19.10
2023-03-30T22:46:24.432Z,19.10
2023-03-30T22:48:55.764Z,19.20
2023-03-30T22:51:26.349Z,19.20
2023-03-30T22:53:57.989Z,19.20
2023-03-30T22:56:25.775Z,19.20
2023-03-30T22:58:52.806Z,19.20
2023-03-30T23:01:21.451Z,19.20
2023-03-30T23:03:48.663Z,19.20
2023-03-30T23:06:19.035Z,19.20
2023-03-30T23:08:48.589Z,19.20
2023-03-30T23:11:16.171Z,19.20
2023-03-30T23:13:43.011Z,19.20
2023-03-30T23:16:10.786Z,19.20
2023-03-30T23:18:38.369Z,19.20
2023-03-30T23:21:11.235Z,19.20
2023-03-30T23:23:38.725Z,19.20
2023-03-30T23:26:09.040Z,19.10
2023-03-30T23:28:39.022Z,19.10
2023-03-30T23:31:17.741Z,19.10
2023-03-30T23:33:45.462Z,18.90
2023-03-30T23:36:19.197Z,18.80
2023-03-30T23:38:46.713Z,18.80
2023-03-30T23:41:16.475Z,18.90
2023-03-30T23:43:43.852Z,18.90
2023-03-30T23:46:11.062Z,18.90
2023-03-30T23:48:38.552Z,19.00
2023-03-30T23:51:06.067Z,19.00
2023-03-30T23:53:33.117Z,19.00
2023-03-30T23:56:00.119Z,19.10
2023-03-30T23:58:27.030Z,19.10
